Time;durP1;ratioP1;P1;durP2;ratioP2;P2;SDS_P1;SDS_P2;PMS_P1;PMS_P2;Temp;Humidity;BMP_temperature;BMP_pressure;BME280_temperature;BME280_humidity;BME280_pressure;Samples;Min_cycle;Max_cycle;Signal;HPM_P1;HPM_P2
2022/10/20 00:01:31;;;;;;;6.78;3.58;;;9.00;99.90;;;;;;4921147;29;20056;-71
2022/10/20 00:03:57;;;;;;;7.45;3.17;;;8.90;99.90;;;;;;4937424;29;20047;-70
2022/10/20 00:06:28;;;;;;;5.93;3.58;;;9.10;99.90;;;;;;4937293;29;20054;-70
2022/10/20 00:08:55;;;;;;;6.30;3.38;;;9.00;99.90;;;;;;4936675;29;20551;-70
2022/10/20 00:11:23;;;;;;;7.32;3.38;;;8.80;99.90;;;;;;4937546;29;20111;-71
2022/10/20 00:13:51;;;;;;;8.48;3.53;;;9.20;99.90;;;;;;4937369;29;20052;-70
2022/10/20 00:16:18;;;;;;;7.45;2.97;;;9.10;99.90;;;;;;4937265;29;20131;-71
2022/10/20 00:18:44;;;;;;;5.47;2.85;;;8.90;99.90;;;;;;4936962;29;20119;-70
2022/10/20 00:21:13;;;;;;;5.88;3.15;;;9.10;99.90;;;;;;4936974;29;20171;-71
2022/10/20 00:23:39;;;;;;;4.53;2.85;;;8.90;99.90;;;;;;4936999;29;20047;-71
2022/10/20 00:26:14;;;;;;;4.28;2.70;;;8.90;99.90;;;;;;4904467;29;20050;-70
2022/10/20 00:28:41;;;;;;;8.60;3.17;;;9.10;99.90;;;;;;4936981;29;20168;-71
2022/10/20 00:31:07;;;;;;;8.10;3.50;;;8.80;99.90;;;;;;4904435;29;20047;-70
2022/10/20 00:33:33;;;;;;;5.03;3.20;;;9.10;99.90;;;;;;4936831;29;20048;-71
2022/10/20 00:36:00;;;;;;;5.47;2.78;;;8.90;99.90;;;;;;4936583;29;20535;-71
2022/10/20 00:38:26;;;;;;;4.70;2.88;;;8.80;99.90;;;;;;4919471;29;20086;-71
2022/10/20 00:40:51;;;;;;;5.65;3.17;;;9.30;99.90;;;;;;4936796;29;20484;-70
2022/10/20 00:43:18;;;;;;;6.00;2.95;;;9.00;99.90;;;;;;4919997;29;20130;-70
2022/10/20 00:45:54;;;;;;;5.78;3.00;;;9.00;99.90;;;;;;4936901;29;20043;-70
2022/10/20 00:48:24;;;;;;;6.30;3.00;;;8.90;99.90;;;;;;4935682;29;20038;-71
2022/10/20 00:50:53;;;;;;;4.60;2.85;;;9.00;99.90;;;;;;4936755;29;20394;-70
2022/10/20 00:53:22;;;;;;;5.80;3.17;;;9.30;99.90;;;;;;4936746;29;20047;-71
2022/10/20 00:55:51;;;;;;;5.38;2.75;;;8.80;99.90;;;;;;4936456;29;20043;-70
2022/10/20 00:58:17;;;;;;;5.88;2.60;;;8.80;99.90;;;;;;4936283;29;20051;-70
2022/10/20 01:00:46;;;;;;;6.05;3.03;;;8.70;99.90;;;;;;4936305;29;20547;-71
2022/10/20 01:03:18;;;;;;;5.10;2.70;;;8.70;99.90;;;;;;4936290;29;20051;-70
2022/10/20 01:05:44;;;;;;;5.63;3.28;;;8.70;99.90;;;;;;4919882;29;20040;-71
2022/10/20 01:08:10;;;;;;;6.68;2.78;;;8.70;99.90;;;;;;4919401;29;20156;-72
2022/10/20 01:10:43;;;;;;;7.15;2.55;;;9.00;99.90;;;;;;4936629;29;20504;-70
2022/10/20 01:13:20;;;;;;;4.47;2.60;;;8.60;99.90;;;;;;4936299;29;20389;-71
2022/10/20 01:16:09;;;;;;;7.80;2.80;;;8.90;99.90;;;;;;4936328;29;20114;-71
2022/10/20 01:18:48;;;;;;;3.72;2.35;;;8.60;99.90;;;;;;4936351;29;20043;-71
2022/10/20 01:21:42;;;;;;;3.55;2.63;;;8.80;99.90;;;;;;4919304;29;20054;-70
2022/10/20 01:24:22;;;;;;;4.05;2.38;;;8.40;99.90;;;;;;4935968;29;20523;-71
2022/10/20 01:26:56;;;;;;;5.63;2.70;;;8.60;99.90;;;;;;4903800;29;20060;-71
2022/10/20 01:29:51;;;;;;;6.50;2.75;;;8.60;99.90;;;;;;4936209;29;20127;-70
2022/10/20 01:32:34;;;;;;;5.35;3.15;;;8.60;99.90;;;;;;4910484;29;20067;-71
2022/10/20 01:35:28;;;;;;;5.50;2.88;;;8.60;99.90;;;;;;4936325;29;20138;-70
2022/10/20 01:38:08;;;;;;;6.03;2.78;;;8.60;99.90;;;;;;4919161;29;20044;-71
2022/10/20 01:40:50;;;;;;;4.68;2.58;;;8.50;99.90;;;;;;4935578;29;20150;-71
2022/10/20 01:43:19;;;;;;;6.80;3.13;;;8.50;99.90;;;;;;4936370;29;20055;-71
2022/10/20 01:45:47;;;;;;;5.45;3.03;;;8.60;99.90;;;;;;4936063;29;20127;-71
2022/10/20 01:48:17;;;;;;;3.95;2.20;;;8.60;99.90;;;;;;4936002;29;20051;-70
2022/10/20 01:50:45;;;;;;;5.72;2.75;;;8.40;99.90;;;;;;4936106;29;20044;-70
2022/10/20 01:53:11;;;;;;;6.82;2.83;;;8.60;99.90;;;;;;4919018;29;20493;-71
2022/10/20 01:55:37;;;;;;;3.58;2.38;;;8.70;99.90;;;;;;4936527;29;20062;-71
2022/10/20 01:58:27;;;;;;;4.15;2.75;;;8.60;99.90;;;;;;4919202;29;20135;-71
2022/10/20 02:00:54;;;;;;;5.20;2.80;;;8.40;99.90;;;;;;4940041;29;20044;-70
2022/10/20 02:03:29;;;;;;;5.60;2.95;;;8.40;99.90;;;;;;4922778;29;20059;-74
2022/10/20 02:06:06;;;;;;;4.38;2.65;;;8.50;99.90;;;;;;4923279;29;20062;-70
2022/10/20 02:08:49;;;;;;;6.85;2.65;;;8.60;99.90;;;;;;4922212;29;20094;-71
2022/10/20 02:11:40;;;;;;;3.80;2.88;;;8.30;99.90;;;;;;4939285;29;20059;-70
2022/10/20 02:14:10;;;;;;;5.65;2.83;;;8.30;99.90;;;;;;4939087;29;20043;-70
2022/10/20 02:16:41;;;;;;;5.90;2.75;;;8.30;99.90;;;;;;4922903;29;20055;-70
2022/10/20 02:19:09;;;;;;;6.28;3.03;;;8.30;99.90;;;;;;4922307;29;20055;-71
2022/10/20 02:21:36;;;;;;;4.65;2.90;;;8.30;99.90;;;;;;4939258;29;20052;-70
2022/10/20 02:24:05;;;;;;;8.48;2.90;;;8.30;99.90;;;;;;4922037;29;20094;-70
2022/10/20 02:26:32;;;;;;;5.30;2.67;;;8.20;99.90;;;;;;4938892;29;20135;-71
2022/10/20 02:29:03;;;;;;;6.50;3.50;;;8.60;99.90;;;;;;4939194;29;20056;-70
2022/10/20 02:31:29;;;;;;;4.50;3.40;;;8.50;99.90;;;;;;4939201;29;20381;-70
2022/10/20 02:33:56;;;;;;;5.05;3.10;;;8.90;99.90;;;;;;4939037;29;20067;-71
2022/10/20 02:36:26;;;;;;;5.00;2.53;;;8.20;99.90;;;;;;4938974;29;20060;-71
2022/10/20 02:38:52;;;;;;;5.80;3.03;;;8.20;99.90;;;;;;4921419;29;20134;-71
2022/10/20 02:41:17;;;;;;;4.60;3.40;;;8.60;99.90;;;;;;4938690;29;20429;-71
2022/10/20 02:43:43;;;;;;;5.90;3.35;;;8.50;99.90;;;;;;4921845;29;20408;-71
2022/10/20 02:46:09;;;;;;;4.63;2.90;;;8.80;99.90;;;;;;4938861;29;20063;-70
2022/10/20 02:48:37;;;;;;;7.03;3.25;;;8.40;99.90;;;;;;4921885;29;20408;-71
2022/10/20 02:51:06;;;;;;;5.68;2.83;;;8.30;99.90;;;;;;4921917;29;20044;-70
2022/10/20 02:53:32;;;;;;;5.95;3.17;;;8.30;99.90;;;;;;4921708;29;20164;-71
2022/10/20 02:55:58;;;;;;;6.63;3.28;;;8.40;99.90;;;;;;4938767;29;20055;-70
2022/10/20 02:58:24;;;;;;;5.40;3.47;;;8.00;99.90;;;;;;4905989;29;20044;-70
2022/10/20 03:00:50;;;;;;;3.50;3.20;;;8.50;99.90;;;;;;4921782;29;20055;-70
2022/10/20 03:03:18;;;;;;;6.75;3.47;;;8.10;99.90;;;;;;4890361;29;20046;-70
2022/10/20 03:05:44;;;;;;;5.53;3.40;;;8.00;99.90;;;;;;4938257;29;20052;-70
2022/10/20 03:08:11;;;;;;;5.35;3.42;;;8.70;99.90;;;;;;4921194;29;20090;-71
2022/10/20 03:10:37;;;;;;;5.63;3.58;;;8.20;99.90;;;;;;4936863;29;20055;-70
2022/10/20 03:13:04;;;;;;;6.82;3.38;;;8.30;99.90;;;;;;4922061;29;20064;-71
2022/10/20 03:15:31;;;;;;;6.72;3.88;;;8.40;99.90;;;;;;4938406;29;20050;-70
2022/10/20 03:17:56;;;;;;;6.78;3.45;;;8.40;99.90;;;;;;4921273;29;20053;-71
2022/10/20 03:20:22;;;;;;;5.93;3.75;;;8.00;99.90;;;;;;4921280;29;20048;-71
2022/10/20 03:22:48;;;;;;;5.90;4.03;;;8.20;99.90;;;;;;4920918;29;20055;-71
2022/10/20 03:25:13;;;;;;;5.82;4.05;;;8.00;99.90;;;;;;4921751;29;20127;-71
2022/10/20 03:27:39;;;;;;;8.02;4.00;;;8.20;99.90;;;;;;4921105;29;20043;-71
2022/10/20 03:30:05;;;;;;;7.13;3.53;;;8.20;99.90;;;;;;4937896;29;20055;-70
2022/10/20 03:32:31;;;;;;;9.60;4.13;;;8.00;99.90;;;;;;4921209;29;20052;-70
2022/10/20 03:34:57;;;;;;;6.25;3.80;;;8.10;99.90;;;;;;4938010;29;20532;-70
2022/10/20 03:37:22;;;;;;;5.88;4.35;;;8.10;99.90;;;;;;4937863;29;20054;-71
2022/10/20 03:39:48;;;;;;;8.98;4.18;;;8.20;99.90;;;;;;4920174;29;20051;-71
2022/10/20 03:42:14;;;;;;;7.95;4.03;;;8.10;99.90;;;;;;4937560;29;20043;-71
2022/10/20 03:44:39;;;;;;;6.93;4.60;;;8.00;99.90;;;;;;4937791;29;20107;-71
2022/10/20 03:47:06;;;;;;;6.47;4.32;;;8.40;99.90;;;;;;4937634;29;20135;-71
2022/10/20 03:49:32;;;;;;;7.03;4.75;;;8.00;99.90;;;;;;4920837;29;20103;-71
2022/10/20 03:51:59;;;;;;;7.00;4.53;;;8.20;99.90;;;;;;4920585;29;20138;-71
2022/10/20 03:54:24;;;;;;;6.38;4.45;;;7.90;99.90;;;;;;4937617;29;20107;-70
2022/10/20 03:56:50;;;;;;;7.65;4.90;;;8.10;99.90;;;;;;4937527;29;20047;-71
2022/10/20 07:01:29;;;;;;;11.98;7.47;;;7.50;99.90;;;;;;4853722;29;20065;-70
2022/10/20 07:05:22;;;;;;;;;;;;;;;;;;;;;
2022/10/20 07:07:53;;;;;;;9.05;6.43;;;7.60;99.90;;;;;;4852766;29;20133;-70
2022/10/20 07:10:19;;;;;;;10.00;6.43;;;8.00;99.90;;;;;;4861919;29;20058;-70
2022/10/20 07:12:45;;;;;;;9.45;6.57;;;8.50;99.90;;;;;;4862927;29;20069;-70
2022/10/20 07:15:10;;;;;;;11.57;6.90;;;7.80;99.90;;;;;;4861938;29;20097;-70
2022/10/20 07:18:14;;;;;;;10.57;6.57;;;7.60;99.90;;;;;;4861906;29;20049;-70
2022/10/20 07:21:05;;;;;;;12.27;7.18;;;7.80;99.90;;;;;;4856839;29;20053;-70
2022/10/20 07:23:32;;;;;;;8.50;6.05;;;7.70;99.90;;;;;;4862685;29;20041;-71
2022/10/20 07:26:11;;;;;;;11.00;6.28;;;7.80;99.90;;;;;;4862635;29;20152;-70
2022/10/20 07:28:41;;;;;;;9.38;6.32;;;7.90;99.90;;;;;;4861460;29;20049;-71
2022/10/20 07:31:10;;;;;;;9.07;5.82;;;7.80;99.90;;;;;;4862640;29;20409;-70
2022/10/20 07:34:22;;;;;;;8.40;6.03;;;8.00;99.90;;;;;;4862445;29;20057;-70
2022/10/20 07:36:50;;;;;;;10.13;6.53;;;7.80;99.90;;;;;;4862690;29;20049;-70
2022/10/20 07:39:28;;;;;;;8.93;5.95;;;8.00;99.90;;;;;;4875576;29;20053;-71
2022/10/20 07:41:53;;;;;;;8.75;5.60;;;8.00;99.90;;;;;;4861390;29;20056;-70
2022/10/20 07:44:19;;;;;;;10.10;5.90;;;7.90;99.90;;;;;;4861786;29;20056;-71
2022/10/20 07:46:45;;;;;;;9.75;5.32;;;8.20;99.90;;;;;;4877118;29;20053;-70
2022/10/20 07:49:11;;;;;;;10.30;6.10;;;8.10;99.90;;;;;;4862423;29;20113;-72
2022/10/20 07:51:37;;;;;;;8.95;6.05;;;8.40;99.90;;;;;;4862686;29;20125;-71
2022/10/20 07:54:07;;;;;;;8.35;5.50;;;8.40;99.90;;;;;;4862792;29;20080;-70
2022/10/20 07:56:39;;;;;;;11.50;5.95;;;8.30;99.90;;;;;;4866365;29;20051;-70
2022/10/20 07:59:05;;;;;;;8.65;6.03;;;8.20;99.90;;;;;;4879161;29;20045;-71
2022/10/20 08:01:31;;;;;;;8.30;5.40;;;8.30;99.90;;;;;;4879326;29;20063;-71
2022/10/20 08:03:57;;;;;;;8.70;5.95;;;8.90;99.90;;;;;;4880053;29;20061;-70
2022/10/20 08:06:24;;;;;;;8.48;5.80;;;8.30;99.90;;;;;;4881085;29;20128;-71
2022/10/20 08:09:06;;;;;;;9.65;5.93;;;8.10;99.90;;;;;;4881043;29;20097;-69
2022/10/20 08:11:37;;;;;;;11.07;6.07;;;8.30;99.90;;;;;;4879735;29;20125;-70
2022/10/20 08:14:03;;;;;;;9.82;5.85;;;8.20;99.90;;;;;;4880858;29;20048;-71
2022/10/20 08:16:29;;;;;;;8.05;5.50;;;8.30;99.90;;;;;;4880719;29;20048;-71
2022/10/20 08:18:55;;;;;;;9.23;5.60;;;8.50;99.90;;;;;;4879852;29;20049;-71
2022/10/20 08:21:21;;;;;;;8.70;5.82;;;8.50;99.90;;;;;;4879839;29;20041;-71
2022/10/20 08:23:49;;;;;;;8.10;5.85;;;8.30;99.90;;;;;;4881151;29;20434;-71
2022/10/20 08:26:24;;;;;;;7.03;5.18;;;8.40;99.90;;;;;;4880731;29;20077;-70
2022/10/20 08:28:52;;;;;;;7.05;5.60;;;8.40;99.90;;;;;;4880535;29;20478;-70
2022/10/20 08:31:18;;;;;;;11.63;5.63;;;8.50;99.90;;;;;;4881064;29;20044;-70
2022/10/20 08:33:44;;;;;;;7.60;5.50;;;8.60;99.90;;;;;;4863925;29;20048;-69
2022/10/20 08:36:13;;;;;;;6.82;5.18;;;8.50;99.90;;;;;;4878838;29;20045;-72
2022/10/20 08:38:40;;;;;;;7.93;5.50;;;8.40;99.90;;;;;;4880005;29;20077;-71
2022/10/20 08:41:20;;;;;;;9.40;5.55;;;8.50;99.90;;;;;;4879183;29;20037;-70
2022/10/20 08:43:51;;;;;;;9.52;5.75;;;8.70;99.90;;;;;;4879920;29;20486;-72
2022/10/20 08:46:19;;;;;;;10.40;6.20;;;8.70;99.90;;;;;;4880096;29;20051;-71
2022/10/20 08:48:46;;;;;;;6.07;5.15;;;9.00;99.90;;;;;;4880087;29;20041;-71
2022/10/20 08:51:22;;;;;;;7.85;5.72;;;9.00;99.90;;;;;;4863432;29;20092;-71
2022/10/20 08:53:51;;;;;;;6.85;5.10;;;8.90;99.90;;;;;;4879344;29;20040;-71
2022/10/20 08:56:19;;;;;;;7.22;5.43;;;9.10;99.90;;;;;;4880333;29;20431;-71
2022/10/20 08:58:45;;;;;;;7.55;5.18;;;9.00;99.90;;;;;;4879261;29;20044;-71
2022/10/20 09:01:24;;;;;;;9.23;5.50;;;9.00;99.90;;;;;;4879846;29;20068;-70
2022/10/20 09:04:21;;;;;;;11.88;5.60;;;9.10;99.90;;;;;;4879872;29;20049;-71
2022/10/20 09:06:52;;;;;;;6.60;4.68;;;9.00;99.90;;;;;;4874487;29;20482;-70
2022/10/20 09:09:19;;;;;;;7.07;5.13;;;9.20;99.90;;;;;;4878442;29;20037;-70
2022/10/20 09:11:46;;;;;;;5.63;4.85;;;9.40;99.90;;;;;;4880003;29;20045;-70
2022/10/20 09:14:13;;;;;;;7.25;4.97;;;9.10;99.90;;;;;;4880057;29;20184;-70
2022/10/20 09:16:40;;;;;;;7.10;4.82;;;9.40;99.90;;;;;;4879800;29;20053;-74
2022/10/20 09:19:17;;;;;;;9.00;5.30;;;9.40;99.90;;;;;;4878546;29;20102;-71
2022/10/20 09:21:50;;;;;;;8.48;4.65;;;9.50;99.90;;;;;;4876343;29;20044;-71
2022/10/20 09:24:17;;;;;;;7.82;5.20;;;9.30;99.90;;;;;;4877742;29;20105;-70
2022/10/20 09:26:45;;;;;;;7.55;4.90;;;9.30;99.90;;;;;;4879395;29;20056;-71
2022/10/20 09:29:17;;;;;;;6.18;5.03;;;9.40;99.90;;;;;;4878590;29;20093;-70
2022/10/20 09:31:51;;;;;;;9.38;4.95;;;9.50;99.90;;;;;;4876297;29;20105;-71
2022/10/20 09:34:24;;;;;;;6.57;4.47;;;9.60;99.90;;;;;;4879119;29;20056;-71
2022/10/20 09:36:54;;;;;;;6.68;4.63;;;9.50;99.90;;;;;;4878065;29;20454;-71
2022/10/20 09:39:23;;;;;;;7.43;4.75;;;9.60;99.90;;;;;;4872909;29;20049;-71
2022/10/20 09:41:58;;;;;;;8.43;5.32;;;9.80;99.90;;;;;;4878210;29;20088;-70
2022/10/20 09:44:24;;;;;;;8.02;4.97;;;9.80;99.90;;;;;;4877106;29;20045;-70
2022/10/20 09:46:52;;;;;;;8.27;5.03;;;9.90;99.90;;;;;;4879134;29;20052;-71
2022/10/20 09:49:37;;;;;;;8.05;4.97;;;9.70;99.90;;;;;;4877407;29;20041;-71
2022/10/20 09:52:16;;;;;;;9.48;5.00;;;9.80;99.90;;;;;;4876391;29;20073;-70
2022/10/20 09:54:47;;;;;;;6.13;4.55;;;9.80;99.90;;;;;;4876867;29;20045;-71
2022/10/20 09:57:18;;;;;;;8.85;4.88;;;10.10;99.90;;;;;;4879246;29;20084;-71
2022/10/20 09:59:47;;;;;;;5.70;4.28;;;9.90;99.90;;;;;;4875650;29;20045;-71
2022/10/20 10:02:16;;;;;;;7.05;4.78;;;10.10;99.90;;;;;;4876986;29;20057;-70
2022/10/20 10:04:44;;;;;;;7.40;4.47;;;10.30;99.90;;;;;;4883024;29;20061;-71
2022/10/20 10:07:25;;;;;;;6.30;4.63;;;10.10;99.90;;;;;;4877558;29;20041;-70
2022/10/20 10:10:02;;;;;;;6.72;4.68;;;10.40;99.90;;;;;;4876536;29;20073;-70
2022/10/20 10:12:30;;;;;;;8.18;5.22;;;10.30;99.90;;;;;;4876520;29;20530;-71
2022/10/20 10:15:20;;;;;;;7.78;4.70;;;10.40;99.90;;;;;;4875792;29;20073;-71
2022/10/20 10:17:46;;;;;;;7.07;4.88;;;10.40;99.90;;;;;;4875643;29;20144;-70
2022/10/20 10:20:11;;;;;;;8.77;4.88;;;10.60;99.90;;;;;;4878865;29;20078;-71
2022/10/20 10:22:39;;;;;;;7.75;5.10;;;10.40;99.90;;;;;;4882072;29;20044;-71
2022/10/20 10:25:06;;;;;;;9.88;5.13;;;10.50;99.90;;;;;;4882295;29;20041;-71
2022/10/20 10:27:34;;;;;;;8.50;4.60;;;10.60;99.90;;;;;;4879694;29;20052;-71
2022/10/20 10:30:15;;;;;;;7.43;4.85;;;10.60;99.90;;;;;;4878483;29;20045;-71
2022/10/20 10:32:46;;;;;;;6.50;4.88;;;10.70;99.90;;;;;;4879253;29;20053;-71
2022/10/20 10:35:24;;;;;;;6.38;4.60;;;10.70;99.90;;;;;;4881082;29;20045;-70
2022/10/20 10:37:52;;;;;;;7.70;5.28;;;10.60;99.90;;;;;;4881174;29;20053;-70
2022/10/20 10:40:19;;;;;;;6.97;4.80;;;10.80;99.90;;;;;;4881613;29;20055;-71
2022/10/20 10:43:00;;;;;;;6.32;4.57;;;10.80;99.90;;;;;;4880684;29;20523;-70
2022/10/20 10:45:51;;;;;;;6.32;4.70;;;10.80;99.90;;;;;;4879507;29;20060;-71
2022/10/20 10:48:41;;;;;;;6.32;4.28;;;10.80;99.90;;;;;;4874950;29;20057;-69
2022/10/20 10:51:28;;;;;;;7.30;4.68;;;10.80;99.90;;;;;;4876577;29;20048;-71
2022/10/20 10:54:48;;;;;;;5.32;4.40;;;10.90;99.90;;;;;;4878087;29;20085;-74
2022/10/20 10:57:38;;;;;;;5.78;4.38;;;11.00;99.90;;;;;;4823352;29;20072;-71
2022/10/20 11:00:14;;;;;;;5.93;4.82;;;11.00;99.90;;;;;;4877346;29;20443;-71
2022/10/20 11:02:58;;;;;;;10.27;5.05;;;11.10;99.90;;;;;;4877687;29;20061;-71
2022/10/20 11:05:46;;;;;;;5.95;4.75;;;11.10;99.90;;;;;;4878924;29;20123;-70
2022/10/20 11:08:15;;;;;;;7.80;5.72;;;11.10;99.90;;;;;;4877177;29;20525;-70
2022/10/20 11:10:53;;;;;;;8.70;4.70;;;11.10;99.90;;;;;;4877545;29;20059;-71
2022/10/20 11:13:18;;;;;;;7.97;5.05;;;11.40;99.90;;;;;;4877140;29;20068;-71
2022/10/20 11:16:04;;;;;;;7.47;5.35;;;11.30;99.90;;;;;;4879994;29;20045;-71
2022/10/20 11:18:55;;;;;;;7.47;5.60;;;11.40;99.90;;;;;;4876013;29;20375;-70
2022/10/20 11:21:26;;;;;;;7.38;5.15;;;11.40;99.90;;;;;;4880777;29;20052;-70
2022/10/20 11:24:07;;;;;;;9.02;4.82;;;11.50;99.90;;;;;;4879774;29;20049;-70
2022/10/20 11:26:36;;;;;;;6.88;5.05;;;11.50;99.90;;;;;;4880095;29;20073;-71
2022/10/20 11:29:08;;;;;;;9.80;5.50;;;11.70;99.90;;;;;;4875868;29;20421;-71
2022/10/20 11:31:43;;;;;;;6.35;5.20;;;11.50;99.90;;;;;;4878690;29;20479;-84
2022/10/20 11:34:17;;;;;;;6.40;5.68;;;11.70;99.90;;;;;;4879262;29;20128;-71
2022/10/20 11:36:51;;;;;;;7.43;4.85;;;11.70;99.90;;;;;;4879642;29;20060;-72
2022/10/20 11:39:24;;;;;;;7.43;5.05;;;11.70;99.90;;;;;;4861591;29;20108;-71
2022/10/20 11:41:54;;;;;;;6.97;5.20;;;11.80;99.90;;;;;;4878738;29;20132;-71
2022/10/20 11:44:33;;;;;;;9.27;5.65;;;12.00;99.90;;;;;;4879783;29;20045;-71
2022/10/20 11:47:09;;;;;;;7.63;5.93;;;11.90;99.90;;;;;;4878960;29;20088;-72
2022/10/20 11:49:38;;;;;;;6.28;5.28;;;11.90;99.90;;;;;;4879840;29;20510;-71
2022/10/20 11:52:10;;;;;;;7.93;5.50;;;12.10;99.90;;;;;;4880550;29;20045;-71
2022/10/20 11:54:54;;;;;;;7.25;5.20;;;12.00;99.90;;;;;;4880539;29;20055;-71
2022/10/20 11:57:35;;;;;;;10.43;5.65;;;12.00;99.90;;;;;;4872483;29;20055;-70
2022/10/20 12:00:22;;;;;;;9.35;5.57;;;12.00;99.90;;;;;;4879316;29;20040;-71
2022/10/20 12:03:26;;;;;;;8.18;6.30;;;12.10;99.90;;;;;;4878232;29;20067;-72
2022/10/20 12:06:28;;;;;;;7.65;5.75;;;12.20;99.90;;;;;;4853078;29;20064;-72
2022/10/20 12:08:53;;;;;;;9.13;5.47;;;12.10;99.90;;;;;;4879121;29;20049;-71
2022/10/20 12:11:40;;;;;;;9.38;5.85;;;12.20;99.90;;;;;;4879054;29;20053;-72
2022/10/20 12:14:15;;;;;;;9.27;6.18;;;12.20;99.90;;;;;;4859362;29;20406;-71
2022/10/20 12:16:58;;;;;;;9.27;5.72;;;12.30;99.90;;;;;;4880200;29;20041;-71
2022/10/20 12:19:24;;;;;;;6.97;5.10;;;12.20;99.90;;;;;;4877765;29;20037;-71
2022/10/20 12:22:01;;;;;;;7.63;6.00;;;12.20;99.90;;;;;;4879465;29;20053;-71
2022/10/20 12:24:39;;;;;;;8.68;5.38;;;12.20;99.90;;;;;;4877509;29;20045;-72
2022/10/20 12:27:07;;;;;;;8.05;5.82;;;12.40;99.90;;;;;;4877105;29;20045;-72
2022/10/20 12:29:33;;;;;;;8.45;6.00;;;12.20;99.90;;;;;;4878605;29;20049;-71
2022/10/20 12:32:23;;;;;;;8.77;5.85;;;12.20;99.90;;;;;;4878350;29;20041;-71
2022/10/20 12:35:00;;;;;;;7.95;6.10;;;12.10;99.90;;;;;;4884276;29;20086;-74
2022/10/20 12:37:34;;;;;;;8.02;5.53;;;12.10;99.90;;;;;;4859797;29;20120;-71
2022/10/20 12:40:25;;;;;;;6.47;5.03;;;12.50;99.90;;;;;;4878288;29;20041;-72
2022/10/20 12:42:54;;;;;;;6.07;5.05;;;12.20;99.90;;;;;;4867850;29;20053;-72
2022/10/20 12:45:35;;;;;;;8.13;6.13;;;12.40;99.90;;;;;;4878846;29;20490;-71
2022/10/20 12:48:02;;;;;;;7.70;6.43;;;12.20;99.90;;;;;;4878809;29;20048;-74
2022/10/20 12:50:30;;;;;;;9.00;5.72;;;12.20;99.90;;;;;;4862492;29;20053;-71
2022/10/20 12:53:09;;;;;;;9.43;6.00;;;12.10;99.90;;;;;;4878417;29;20049;-72
2022/10/20 12:55:37;;;;;;;8.63;5.68;;;12.30;99.90;;;;;;4876522;29;20448;-71
2022/10/20 12:58:18;;;;;;;9.18;6.20;;;12.20;99.90;;;;;;4875922;29;20718;-71
2022/10/20 13:00:47;;;;;;;8.98;5.85;;;12.30;99.90;;;;;;4878694;29;20413;-71
2022/10/20 13:03:49;;;;;;;9.32;6.10;;;12.10;99.90;;;;;;4860696;29;20057;-70
2022/10/20 13:06:29;;;;;;;7.50;6.20;;;12.20;99.90;;;;;;4845206;29;20052;-72
2022/10/20 13:09:04;;;;;;;10.50;6.13;;;12.10;99.90;;;;;;4874889;29;20422;-71
2022/10/20 13:11:36;;;;;;;7.82;5.85;;;12.30;99.90;;;;;;4876975;29;20086;-71
2022/10/20 13:14:29;;;;;;;9.05;6.40;;;12.10;99.90;;;;;;4874981;29;20084;-71
2022/10/20 13:17:24;;;;;;;10.93;6.70;;;12.10;99.90;;;;;;4876425;29;20082;-71
2022/10/20 13:20:04;;;;;;;10.73;6.88;;;12.10;99.90;;;;;;4870017;29;20053;-71
2022/10/20 13:22:48;;;;;;;11.50;6.88;;;12.10;99.90;;;;;;4874592;29;20454;-72
2022/10/20 13:25:35;;;;;;;8.82;6.15;;;12.20;99.90;;;;;;4877042;29;20041;-72
2022/10/20 13:28:17;;;;;;;9.48;7.22;;;12.40;99.90;;;;;;4878605;29;20052;-72
2022/10/20 13:31:16;;;;;;;9.32;6.38;;;12.10;99.90;;;;;;4878235;29;20056;-72
2022/10/20 13:34:18;;;;;;;9.63;7.45;;;12.00;99.90;;;;;;4877704;29;20124;-72
2022/10/20 13:37:15;;;;;;;11.18;8.13;;;11.90;99.90;;;;;;4875842;29;20057;-71
2022/10/20 13:40:05;;;;;;;10.45;7.53;;;12.00;99.90;;;;;;4877674;29;20045;-71
2022/10/20 13:42:31;;;;;;;10.32;7.32;;;12.00;99.90;;;;;;4876625;29;20049;-71
2022/10/20 13:45:06;;;;;;;13.20;8.32;;;;;;;;;;4878352;29;20045;-71
2022/10/20 13:47:53;;;;;;;12.52;9.20;;;11.80;99.90;;;;;;4876517;29;20138;-71
2022/10/20 13:50:28;;;;;;;13.05;9.00;;;11.70;99.90;;;;;;4860996;29;20049;-71
2022/10/20 13:53:02;;;;;;;13.65;9.32;;;11.70;99.90;;;;;;4875696;29;20049;-71
2022/10/20 13:55:30;;;;;;;12.38;8.35;;;12.00;99.90;;;;;;4877883;29;20049;-72
2022/10/20 13:58:03;;;;;;;15.32;8.93;;;11.60;99.90;;;;;;4881423;29;20056;-71
2022/10/20 14:00:31;;;;;;;16.23;9.27;;;11.60;99.90;;;;;;4880205;29;20056;-72
2022/10/20 14:03:15;;;;;;;15.60;10.00;;;11.70;99.90;;;;;;4881492;29;20071;-72
2022/10/20 14:05:40;;;;;;;15.73;8.90;;;11.60;99.90;;;;;;4880723;29;20057;-73
2022/10/20 14:08:11;;;;;;;14.10;9.25;;;11.60;99.90;;;;;;4880712;29;20052;-72
2022/10/20 14:10:54;;;;;;;13.95;9.35;;;11.70;99.90;;;;;;4879998;29;20127;-72
2022/10/20 14:13:21;;;;;;;;;;;11.70;99.90;;;;;;4880725;29;20064;-73
2022/10/20 14:15:52;;;;;;;13.25;9.48;;;11.60;99.90;;;;;;4881935;29;19928;-73
2022/10/20 14:18:38;;;;;;;12.38;8.95;;;11.60;99.90;;;;;;4880832;29;20048;-73
2022/10/20 14:21:07;;;;;;;15.60;9.73;;;11.50;99.90;;;;;;4880433;29;20056;-73
2022/10/20 14:23:40;;;;;;;14.90;11.13;;;11.40;99.90;;;;;;4881473;29;20136;-73
2022/10/20 14:26:09;;;;;;;;;;;11.60;99.90;;;;;;4879568;29;20586;-73
2022/10/20 14:28:36;;;;;;;14.95;10.57;;;11.60;99.90;;;;;;4880547;29;19928;-75
2022/10/20 14:31:02;;;;;;;16.00;12.27;;;11.50;99.90;;;;;;4881861;29;20080;-73
2022/10/20 14:33:29;;;;;;;15.90;12.25;;;11.40;99.90;;;;;;4881056;29;20120;-74
2022/10/20 14:35:58;;;;;;;14.38;10.48;;;11.50;99.90;;;;;;4881475;29;20073;-75
2022/10/20 14:38:31;;;;;;;18.67;12.23;;;11.50;99.90;;;;;;4879958;29;20053;-74
2022/10/20 14:40:58;;;;;;;16.55;11.32;;;11.50;99.90;;;;;;4881116;29;20406;-74
2022/10/20 14:43:24;;;;;;;16.63;13.30;;;11.40;99.90;;;;;;4880622;29;20131;-74
2022/10/20 14:45:58;;;;;;;17.63;12.80;;;11.40;99.90;;;;;;4880410;29;20417;-75
2022/10/20 14:48:35;;;;;;;23.08;13.82;;;11.50;99.90;;;;;;4881406;29;20041;-74
2022/10/20 14:51:21;;;;;;;19.77;13.18;;;11.50;99.90;;;;;;4880307;29;20120;-73
2022/10/20 14:53:47;;;;;;;18.63;12.05;;;11.40;99.90;;;;;;4864979;29;20131;-73
2022/10/20 14:56:23;;;;;;;20.42;12.65;;;11.40;99.90;;;;;;4880392;29;20053;-73
2022/10/20 14:58:59;;;;;;;21.73;12.90;;;11.40;99.90;;;;;;4880064;29;20075;-73
2022/10/20 15:01:31;;;;;;;20.50;12.80;;;11.40;99.90;;;;;;4881308;29;20056;-72
2022/10/20 15:04:22;;;;;;;17.83;13.20;;;11.40;99.90;;;;;;4879194;29;20049;-72
2022/10/20 15:06:48;;;;;;;22.17;12.95;;;11.40;99.90;;;;;;4879071;29;20061;-71
2022/10/20 15:09:23;;;;;;;18.27;14.10;;;11.40;99.90;;;;;;4881151;29;20546;-73
2022/10/20 15:11:49;;;;;;;20.05;12.25;;;11.40;99.90;;;;;;4879824;29;20056;-72
2022/10/20 15:14:16;;;;;;;18.88;12.20;;;11.60;99.90;;;;;;4880045;29;20105;-72
2022/10/20 15:16:45;;;;;;;20.25;14.10;;;11.50;99.90;;;;;;4879978;29;20049;-71
2022/10/20 15:19:28;;;;;;;20.05;13.07;;;11.30;99.90;;;;;;4880692;29;20045;-72
2022/10/20 15:22:12;;;;;;;20.45;12.65;;;11.50;99.90;;;;;;4879480;29;20053;-72
2022/10/20 15:24:39;;;;;;;22.23;13.48;;;11.50;99.90;;;;;;4864811;29;20052;-71
2022/10/20 15:27:09;;;;;;;20.70;13.30;;;11.50;99.90;;;;;;4864963;29;20049;-72
2022/10/20 15:29:35;;;;;;;23.58;14.23;;;11.50;99.90;;;;;;4880368;29;20069;-72
2022/10/20 15:32:01;;;;;;;24.13;14.02;;;11.50;99.90;;;;;;4864192;29;20044;-72
2022/10/20 15:34:27;;;;;;;24.85;16.83;;;11.50;99.90;;;;;;4880143;29;20081;-72
2022/10/20 15:36:53;;;;;;;23.17;13.90;;;11.50;99.90;;;;;;4864924;29;20053;-71
2022/10/20 15:39:19;;;;;;;20.92;14.02;;;11.50;99.90;;;;;;4880062;29;20053;-71
2022/10/20 15:41:45;;;;;;;21.15;14.32;;;11.60;99.90;;;;;;4881585;29;20059;-72
2022/10/20 15:44:20;;;;;;;24.02;14.30;;;11.60;99.90;;;;;;4880989;29;20053;-71
2022/10/20 15:46:47;;;;;;;22.83;16.10;;;11.60;99.90;;;;;;4865033;29;20064;-71
2022/10/20 15:49:13;;;;;;;20.98;13.60;;;11.60;99.90;;;;;;4881554;29;20052;-72
2022/10/20 15:51:44;;;;;;;18.77;12.63;;;11.70;99.90;;;;;;4881087;29;20384;-71
2022/10/20 15:54:14;;;;;;;19.67;13.27;;;11.60;99.90;;;;;;4864401;29;20053;-71
2022/10/20 15:56:40;;;;;;;24.77;15.52;;;11.70;99.90;;;;;;4879758;29;20136;-71
2022/10/20 15:59:06;;;;;;;23.55;14.35;;;11.60;99.90;;;;;;4864005;29;20527;-71
2022/10/20 16:01:32;;;;;;;23.35;14.50;;;11.60;99.90;;;;;;4877632;29;20064;-72
2022/10/20 16:04:00;;;;;;;22.02;13.88;;;11.60;99.90;;;;;;4876442;29;20064;-72
2022/10/20 16:06:25;;;;;;;24.70;14.82;;;11.70;99.90;;;;;;4860850;29;20570;-74
2022/10/20 16:08:51;;;;;;;22.30;15.73;;;11.80;99.90;;;;;;4860329;29;20127;-74
2022/10/20 16:11:19;;;;;;;22.05;15.93;;;11.80;99.90;;;;;;4875934;29;20502;-73
2022/10/20 16:13:45;;;;;;;23.40;17.30;;;11.70;99.90;;;;;;4875548;29;20084;-73
2022/10/20 16:16:16;;;;;;;22.48;15.13;;;11.70;99.90;;;;;;4876998;29;20092;-74
2022/10/20 16:18:43;;;;;;;24.10;14.80;;;11.70;99.90;;;;;;4875339;29;20048;-73
2022/10/20 16:21:09;;;;;;;21.80;14.68;;;12.10;99.90;;;;;;4876834;29;20048;-74
2022/10/20 16:23:36;;;;;;;22.85;16.35;;;11.70;99.90;;;;;;4860231;29;20402;-72